sensor_id;sensor_type;location;lat;lon;timestamp;pressure;altitude;pressure_sealevel;temperature;humidity
61384;BME280;63511;49.346;8.798;2023-01-28T00:02:00;100961.22;;;5.84;70.82
61384;BME280;63511;49.346;8.798;2023-01-28T00:04:27;100945.00;;;5.46;71.63
61384;BME280;63511;49.346;8.798;2023-01-28T00:06:55;100947.78;;;5.67;71.13
61384;BME280;63511;49.346;8.798;2023-01-28T00:09:22;100942.78;;;5.84;71.16
61384;BME280;63511;49.346;8.798;2023-01-28T00:11:49;100948.53;;;5.66;72.58
61384;BME280;63511;49.346;8.798;2023-01-28T00:14:16;100942.75;;;5.75;71.02
61384;BME280;63511;49.346;8.798;2023-01-28T00:16:43;100933.53;;;5.48;72.30
61384;BME280;63511;49.346;8.798;2023-01-28T00:19:09;100941.03;;;5.48;69.49
61384;BME280;63511;49.346;8.798;2023-01-28T00:21:36;100934.81;;;5.71;69.88
61384;BME280;63511;49.346;8.798;2023-01-28T00:24:05;100941.78;;;5.65;69.83
61384;BME280;63511;49.346;8.798;2023-01-28T00:26:33;100944.53;;;5.76;69.29
61384;BME280;63511;49.346;8.798;2023-01-28T00:29:01;100940.44;;;5.85;69.27
61384;BME280;63511;49.346;8.798;2023-01-28T00:31:29;100941.31;;;5.69;69.64
61384;BME280;63511;49.346;8.798;2023-01-28T00:33:56;100937.34;;;5.79;69.68
61384;BME280;63511;49.346;8.798;2023-01-28T00:36:24;100933.66;;;5.67;69.52
61384;BME280;63511;49.346;8.798;2023-01-28T00:38:52;100919.19;;;5.82;70.26
61384;BME280;63511;49.346;8.798;2023-01-28T00:41:23;100909.44;;;6.02;67.88
61384;BME280;63511;49.346;8.798;2023-01-28T00:43:51;100912.44;;;5.89;68.32
61384;BME280;63511;49.346;8.798;2023-01-28T00:46:18;100899.41;;;6.02;67.81
61384;BME280;63511;49.346;8.798;2023-01-28T00:48:46;100906.16;;;6.12;67.16
61384;BME280;63511;49.346;8.798;2023-01-28T00:51:14;100913.00;;;5.87;67.24
61384;BME280;63511;49.346;8.798;2023-01-28T00:53:41;100913.88;;;5.79;68.32
61384;BME280;63511;49.346;8.798;2023-01-28T00:56:12;100910.38;;;5.68;70.30
61384;BME280;63511;49.346;8.798;2023-01-28T00:58:40;100925.69;;;5.63;70.56
61384;BME280;63511;49.346;8.798;2023-01-28T01:01:08;100931.72;;;5.56;69.76
61384;BME280;63511;49.346;8.798;2023-01-28T01:03:34;100925.13;;;5.48;69.55
61384;BME280;63511;49.346;8.798;2023-01-28T01:06:01;100927.44;;;5.55;69.19
61384;BME280;63511;49.346;8.798;2023-01-28T01:08:28;100929.50;;;5.76;68.39
61384;BME280;63511;49.346;8.798;2023-01-28T01:10:59;100930.41;;;5.85;68.64
61384;BME280;63511;49.346;8.798;2023-01-28T01:13:26;100934.09;;;5.72;68.50
61384;BME280;63511;49.346;8.798;2023-01-28T01:16:02;100934.97;;;5.55;68.83
61384;BME280;63511;49.346;8.798;2023-01-28T01:18:28;100935.41;;;5.85;67.30
61384;BME280;63511;49.346;8.798;2023-01-28T01:20:55;100934.22;;;5.82;67.41
61384;BME280;63511;49.346;8.798;2023-01-28T01:23:24;100937.19;;;5.95;67.30
61384;BME280;63511;49.346;8.798;2023-01-28T01:25:51;100941.91;;;6.01;66.29
61384;BME280;63511;49.346;8.798;2023-01-28T01:28:18;100932.91;;;5.94;67.11
61384;BME280;63511;49.346;8.798;2023-01-28T01:30:46;100937.16;;;5.86;67.98
61384;BME280;63511;49.346;8.798;2023-01-28T01:33:15;100941.03;;;5.74;68.66
61384;BME280;63511;49.346;8.798;2023-01-28T01:35:41;100940.72;;;5.71;68.82
61384;BME280;63511;49.346;8.798;2023-01-28T01:38:08;100933.06;;;5.87;67.77
61384;BME280;63511;49.346;8.798;2023-01-28T01:40:35;100945.13;;;5.91;66.89
61384;BME280;63511;49.346;8.798;2023-01-28T01:43:15;100934.22;;;6.08;66.72
61384;BME280;63511;49.346;8.798;2023-01-28T01:45:43;100934.63;;;6.12;66.36
61384;BME280;63511;49.346;8.798;2023-01-28T01:48:15;100930.03;;;6.25;66.60
61384;BME280;63511;49.346;8.798;2023-01-28T01:50:48;100939.66;;;6.21;66.48
61384;BME280;63511;49.346;8.798;2023-01-28T01:53:19;100928.00;;;6.13;66.98
61384;BME280;63511;49.346;8.798;2023-01-28T01:55:51;100930.88;;;5.64;69.00
61384;BME280;63511;49.346;8.798;2023-01-28T01:58:20;100941.03;;;5.48;69.48
61384;BME280;63511;49.346;8.798;2023-01-28T02:00:48;100934.22;;;5.30;70.42
61384;BME280;63511;49.346;8.798;2023-01-28T02:03:18;100936.59;;;5.37;71.20
61384;BME280;63511;49.346;8.798;2023-01-28T02:05:48;100938.38;;;5.47;71.02
61384;BME280;63511;49.346;8.798;2023-01-28T02:08:15;100937.16;;;5.35;72.39
61384;BME280;63511;49.346;8.798;2023-01-28T02:10:49;100925.41;;;5.51;72.24
61384;BME280;63511;49.346;8.798;2023-01-28T02:13:19;100938.94;;;5.44;71.87
61384;BME280;63511;49.346;8.798;2023-01-28T02:15:48;100935.44;;;5.42;72.87
61384;BME280;63511;49.346;8.798;2023-01-28T02:18:17;100938.81;;;5.43;73.19
61384;BME280;63511;49.346;8.798;2023-01-28T02:24:14;100933.22;;;5.37;73.11
61384;BME280;63511;49.346;8.798;2023-01-28T02:26:56;100938.50;;;5.23;74.21
61384;BME280;63511;49.346;8.798;2023-01-28T02:29:35;100938.31;;;5.04;74.63
61384;BME280;63511;49.346;8.798;2023-01-28T02:32:09;100933.50;;;5.40;73.71
61384;BME280;63511;49.346;8.798;2023-01-28T02:34:43;100937.16;;;5.35;73.39
61384;BME280;63511;49.346;8.798;2023-01-28T02:37:14;100935.84;;;5.30;74.69
61384;BME280;63511;49.346;8.798;2023-01-28T02:39:46;100941.00;;;5.40;73.35
61384;BME280;63511;49.346;8.798;2023-01-28T02:42:16;100947.22;;;5.52;73.24
61384;BME280;63511;49.346;8.798;2023-01-28T02:44:46;100947.66;;;5.48;73.59
61384;BME280;63511;49.346;8.798;2023-01-28T02:47:14;100954.88;;;5.62;73.45
61384;BME280;63511;49.346;8.798;2023-01-28T02:50:00;100950.44;;;5.60;73.00
61384;BME280;63511;49.346;8.798;2023-01-28T02:52:33;100947.22;;;5.43;73.79
61384;BME280;63511;49.346;8.798;2023-01-28T02:55:22;100950.13;;;5.39;74.88
61384;BME280;63511;49.346;8.798;2023-01-28T02:57:59;100953.97;;;5.62;73.35
61384;BME280;63511;49.346;8.798;2023-01-28T03:00:33;100948.66;;;5.50;74.09
61384;BME280;63511;49.346;8.798;2023-01-28T03:03:14;100949.56;;;5.50;73.78
61384;BME280;63511;49.346;8.798;2023-01-28T03:05:45;100958.53;;;5.66;73.87
61384;BME280;63511;49.346;8.798;2023-01-28T03:08:30;100956.34;;;5.77;73.04
61384;BME280;63511;49.346;8.798;2023-01-28T03:11:18;100955.94;;;5.90;71.96
61384;BME280;63511;49.346;8.798;2023-01-28T03:14:02;100960.47;;;5.85;72.76
61384;BME280;63511;49.346;8.798;2023-01-28T03:16:48;100956.03;;;5.83;71.77
61384;BME280;63511;49.346;8.798;2023-01-28T03:19:33;100960.31;;;5.84;72.33
61384;BME280;63511;49.346;8.798;2023-01-28T03:22:18;100952.06;;;5.68;72.77
61384;BME280;63511;49.346;8.798;2023-01-28T03:25:02;100955.44;;;5.77;72.36
61384;BME280;63511;49.346;8.798;2023-01-28T03:27:51;100964.59;;;5.76;72.34
61384;BME280;63511;49.346;8.798;2023-01-28T03:30:41;100956.63;;;5.46;73.50
61384;BME280;63511;49.346;8.798;2023-01-28T03:33:28;100963.13;;;5.61;73.88
61384;BME280;63511;49.346;8.798;2023-01-28T03:36:14;100955.91;;;5.47;73.99
61384;BME280;63511;49.346;8.798;2023-01-28T03:38:59;100960.19;;;5.48;74.37
61384;BME280;63511;49.346;8.798;2023-01-28T03:41:25;100963.69;;;5.41;74.16
61384;BME280;63511;49.346;8.798;2023-01-28T03:43:52;100966.22;;;5.67;72.82
61384;BME280;63511;49.346;8.798;2023-01-28T03:46:20;100952.53;;;5.64;73.59
61384;BME280;63511;49.346;8.798;2023-01-28T03:48:48;100957.66;;;5.39;74.57
61384;BME280;63511;49.346;8.798;2023-01-28T03:51:14;100960.94;;;5.64;74.03
61384;BME280;63511;49.346;8.798;2023-01-28T03:53:42;100967.84;;;5.58;73.06
61384;BME280;63511;49.346;8.798;2023-01-28T03:56:09;100975.47;;;5.34;74.62
61384;BME280;63511;49.346;8.798;2023-01-28T03:58:42;100980.66;;;5.44;74.66
61384;BME280;63511;49.346;8.798;2023-01-28T04:01:18;100977.00;;;5.49;74.38
61384;BME280;63511;49.346;8.798;2023-01-28T04:03:45;100967.81;;;5.41;74.06
61384;BME280;63511;49.346;8.798;2023-01-28T04:06:13;100982.13;;;5.50;74.90
61384;BME280;63511;49.346;8.798;2023-01-28T04:08:40;100994.41;;;5.90;71.45
61384;BME280;63511;49.346;8.798;2023-01-28T04:11:13;100991.16;;;5.91;71.34
61384;BME280;63511;49.346;8.798;2023-01-28T04:13:44;100988.50;;;5.98;70.70
61384;BME280;63511;49.346;8.798;2023-01-28T04:16:13;100992.91;;;6.10;70.47
61384;BME280;63511;49.346;8.798;2023-01-28T04:18:40;100988.34;;;5.80;71.47
61384;BME280;63511;49.346;8.798;2023-01-28T04:21:07;100987.75;;;6.00;71.18
61384;BME280;63511;49.346;8.798;2023-01-28T04:23:35;100983.22;;;5.95;71.54
61384;BME280;63511;49.346;8.798;2023-01-28T04:26:01;100993.78;;;5.59;73.36
61384;BME280;63511;49.346;8.798;2023-01-28T04:28:28;101000.53;;;5.60;72.44
61384;BME280;63511;49.346;8.798;2023-01-28T04:30:55;101000.00;;;5.96;71.13
61384;BME280;63511;49.346;8.798;2023-01-28T04:33:21;101002.38;;;5.95;70.64
61384;BME280;63511;49.346;8.798;2023-01-28T04:35:48;101007.34;;;5.86;70.29
61384;BME280;63511;49.346;8.798;2023-01-28T04:38:14;101003.94;;;5.86;70.79
61384;BME280;63511;49.346;8.798;2023-01-28T04:40:42;101005.44;;;6.01;69.62
61384;BME280;63511;49.346;8.798;2023-01-28T04:43:09;101000.56;;;5.85;70.39
61384;BME280;63511;49.346;8.798;2023-01-28T04:45:35;101003.78;;;5.76;71.92
61384;BME280;63511;49.346;8.798;2023-01-28T04:48:02;101007.09;;;6.01;70.93
61384;BME280;63511;49.346;8.798;2023-01-28T04:50:29;101008.25;;;5.87;70.45
61384;BME280;63511;49.346;8.798;2023-01-28T04:52:55;101010.91;;;6.14;70.38
61384;BME280;63511;49.346;8.798;2023-01-28T04:55:22;101012.78;;;6.17;69.97
61384;BME280;63511;49.346;8.798;2023-01-28T04:57:50;101013.81;;;6.27;70.96
61384;BME280;63511;49.346;8.798;2023-01-28T05:00:17;101007.06;;;5.75;72.18
61384;BME280;63511;49.346;8.798;2023-01-28T05:02:44;101014.00;;;6.03;70.78
61384;BME280;63511;49.346;8.798;2023-01-28T05:05:10;101015.41;;;5.49;71.63
61384;BME280;63511;49.346;8.798;2023-01-28T05:07:37;101015.31;;;5.82;71.64
61384;BME280;63511;49.346;8.798;2023-01-28T05:10:04;101008.09;;;5.68;71.16
61384;BME280;63511;49.346;8.798;2023-01-28T05:12:31;101011.00;;;5.55;72.12
61384;BME280;63511;49.346;8.798;2023-01-28T05:15:00;101012.66;;;5.64;71.58
61384;BME280;63511;49.346;8.798;2023-01-28T05:17:26;101020.28;;;5.65;72.12
61384;BME280;63511;49.346;8.798;2023-01-28T05:19:53;101015.00;;;5.62;71.93
61384;BME280;63511;49.346;8.798;2023-01-28T05:22:20;101011.75;;;5.80;70.85
61384;BME280;63511;49.346;8.798;2023-01-28T05:24:46;101022.09;;;5.92;71.24
61384;BME280;63511;49.346;8.798;2023-01-28T05:27:13;101011.63;;;5.79;71.49
61384;BME280;63511;49.346;8.798;2023-01-28T05:29:39;101013.59;;;5.90;71.02
61384;BME280;63511;49.346;8.798;2023-01-28T05:32:07;101007.34;;;5.86;71.14
61384;BME280;63511;49.346;8.798;2023-01-28T05:34:34;101015.59;;;5.77;71.73
61384;BME280;63511;49.346;8.798;2023-01-28T05:37:01;101026.78;;;5.80;71.35
61384;BME280;63511;49.346;8.798;2023-01-28T05:39:28;101034.31;;;5.63;71.65
61384;BME280;63511;49.346;8.798;2023-01-28T05:41:55;101032.13;;;5.83;71.61
61384;BME280;63511;49.346;8.798;2023-01-28T05:44:22;101039.53;;;5.99;70.19
61384;BME280;63511;49.346;8.798;2023-01-28T05:46:48;101042.59;;;5.79;71.76
61384;BME280;63511;49.346;8.798;2023-01-28T05:49:16;101037.75;;;5.98;71.72
61384;BME280;63511;49.346;8.798;2023-01-28T05:51:43;101034.66;;;6.01;70.64
61384;BME280;63511;49.346;8.798;2023-01-28T05:54:09;101045.38;;;5.74;72.20
61384;BME280;63511;49.346;8.798;2023-01-28T05:56:36;101047.44;;;5.86;71.59
61384;BME280;63511;49.346;8.798;2023-01-28T05:59:04;101055.00;;;6.04;71.39
61384;BME280;63511;49.346;8.798;2023-01-28T06:01:31;101055.91;;;5.95;70.60
61384;BME280;63511;49.346;8.798;2023-01-28T06:03:57;101062.47;;;5.86;71.20
61384;BME280;63511;49.346;8.798;2023-01-28T06:06:26;101055.72;;;5.85;71.67
61384;BME280;63511;49.346;8.798;2023-01-28T06:08:52;101054.72;;;6.09;70.54
61384;BME280;63511;49.346;8.798;2023-01-28T06:11:19;101058.69;;;5.98;69.87
61384;BME280;63511;49.346;8.798;2023-01-28T06:13:45;101061.47;;;5.84;71.03
61384;BME280;63511;49.346;8.798;2023-01-28T06:16:12;101063.69;;;5.98;71.04
61384;BME280;63511;49.346;8.798;2023-01-28T06:18:38;101073.28;;;5.94;71.42
61384;BME280;63511;49.346;8.798;2023-01-28T06:21:05;101073.75;;;5.90;70.42
61384;BME280;63511;49.346;8.798;2023-01-28T06:23:33;101071.66;;;6.12;70.87
61384;BME280;63511;49.346;8.798;2023-01-28T06:25:59;101071.66;;;6.12;70.01
61384;BME280;63511;49.346;8.798;2023-01-28T06:28:26;101085.22;;;5.96;70.00
61384;BME280;63511;49.346;8.798;2023-01-28T06:30:52;101083.41;;;5.78;72.80
61384;BME280;63511;49.346;8.798;2023-01-28T06:33:20;101080.31;;;5.72;73.06
61384;BME280;63511;49.346;8.798;2023-01-28T06:35:48;101088.91;;;5.91;72.82
61384;BME280;63511;49.346;8.798;2023-01-28T06:38:15;101079.78;;;6.09;72.24
61384;BME280;63511;49.346;8.798;2023-01-28T06:40:42;101086.66;;;5.69;73.16
61384;BME280;63511;49.346;8.798;2023-01-28T06:43:09;101088.72;;;5.64;72.69
61384;BME280;63511;49.346;8.798;2023-01-28T06:45:35;101093.19;;;6.01;70.20
61384;BME280;63511;49.346;8.798;2023-01-28T06:48:02;101091.53;;;5.84;70.59
61384;BME280;63511;49.346;8.798;2023-01-28T06:50:29;101091.13;;;6.14;70.21
61384;BME280;63511;49.346;8.798;2023-01-28T06:52:56;101093.78;;;5.98;70.10
61384;BME280;63511;49.346;8.798;2023-01-28T06:55:22;101100.25;;;5.96;70.55
61384;BME280;63511;49.346;8.798;2023-01-28T06:57:50;101106.41;;;5.83;70.89
61384;BME280;63511;49.346;8.798;2023-01-28T07:00:17;101112.31;;;5.83;69.78
61384;BME280;63511;49.346;8.798;2023-01-28T07:02:44;101115.06;;;5.61;70.48
61384;BME280;63511;49.346;8.798;2023-01-28T07:05:10;101116.00;;;5.78;69.80
61384;BME280;63511;49.346;8.798;2023-01-28T07:07:37;101114.41;;;5.87;70.09
61384;BME280;63511;49.346;8.798;2023-01-28T07:10:04;101115.03;;;5.93;69.27
61384;BME280;63511;49.346;8.798;2023-01-28T07:12:31;101111.47;;;6.17;68.27
61384;BME280;63511;49.346;8.798;2023-01-28T07:14:59;101114.16;;;6.36;68.28
61384;BME280;63511;49.346;8.798;2023-01-28T07:17:25;101123.88;;;6.24;68.54
61384;BME280;63511;49.346;8.798;2023-01-28T07:19:52;101124.59;;;5.97;68.75
61384;BME280;63511;49.346;8.798;2023-01-28T07:22:18;101131.06;;;5.87;69.46
61384;BME280;63511;49.346;8.798;2023-01-28T07:24:45;101131.56;;;6.00;69.33
61384;BME280;63511;49.346;8.798;2023-01-28T07:27:12;101128.25;;;5.84;68.88
61384;BME280;63511;49.346;8.798;2023-01-28T07:29:38;101133.63;;;6.04;68.87
61384;BME280;63511;49.346;8.798;2023-01-28T07:32:06;101127.41;;;6.09;68.20
61384;BME280;63511;49.346;8.798;2023-01-28T07:34:33;101127.13;;;6.15;68.44
61384;BME280;63511;49.346;8.798;2023-01-28T07:37:01;101134.78;;;6.08;68.11
61384;BME280;63511;49.346;8.798;2023-01-28T07:39:28;101132.94;;;5.72;70.17
61384;BME280;63511;49.346;8.798;2023-01-28T07:41:55;101133.81;;;5.81;70.39
61384;BME280;63511;49.346;8.798;2023-01-28T07:44:21;101137.56;;;6.02;69.11
61384;BME280;63511;49.346;8.798;2023-01-28T07:46:48;101141.25;;;5.88;69.23
61384;BME280;63511;49.346;8.798;2023-01-28T07:49:15;101138.19;;;6.08;68.67
61384;BME280;63511;49.346;8.798;2023-01-28T07:51:43;101132.59;;;6.11;68.75
61384;BME280;63511;49.346;8.798;2023-01-28T07:54:11;101127.63;;;5.69;69.30
61384;BME280;63511;49.346;8.798;2023-01-28T07:56:42;101143.56;;;5.70;69.68
61384;BME280;63511;49.346;8.798;2023-01-28T07:59:09;101131.63;;;5.84;68.63
61384;BME280;63511;49.346;8.798;2023-01-28T08:01:35;101122.53;;;6.02;68.69
61384;BME280;63511;49.346;8.798;2023-01-28T08:04:02;101141.06;;;5.78;68.98
61384;BME280;63511;49.346;8.798;2023-01-28T08:06:30;101141.25;;;5.88;69.33
61384;BME280;63511;49.346;8.798;2023-01-28T08:09:02;101130.88;;;5.68;68.39
61384;BME280;63511;49.346;8.798;2023-01-28T08:11:30;101137.03;;;5.63;69.12
61384;BME280;63511;49.346;8.798;2023-01-28T08:13:57;101145.81;;;5.92;68.84
61384;BME280;63511;49.346;8.798;2023-01-28T08:16:23;101136.25;;;5.88;68.29
61384;BME280;63511;49.346;8.798;2023-01-28T08:18:51;101140.09;;;6.02;68.35
61384;BME280;63511;49.346;8.798;2023-01-28T08:21:18;101141.28;;;6.06;68.00
61384;BME280;63511;49.346;8.798;2023-01-28T08:23:46;101153.31;;;5.84;68.38
61384;BME280;63511;49.346;8.798;2023-01-28T08:26:12;101163.00;;;6.31;68.11
61384;BME280;63511;49.346;8.798;2023-01-28T08:28:39;101165.03;;;6.18;68.06
61384;BME280;63511;49.346;8.798;2023-01-28T08:31:29;101160.34;;;6.21;69.28
61384;BME280;63511;49.346;8.798;2023-01-28T08:33:56;101150.91;;;5.68;68.58
61384;BME280;63511;49.346;8.798;2023-01-28T08:36:48;101154.19;;;5.84;68.75
61384;BME280;63511;49.346;8.798;2023-01-28T08:39:16;101167.47;;;5.83;69.15
61384;BME280;63511;49.346;8.798;2023-01-28T08:48:21;101172.28;;;6.23;67.36
61384;BME280;63511;49.346;8.798;2023-01-28T08:50:59;101168.63;;;5.78;68.93
61384;BME280;63511;49.346;8.798;2023-01-28T08:56:13;101162.47;;;5.92;69.28
61384;BME280;63511;49.346;8.798;2023-01-28T08:57:08;101158.69;;;5.95;68.94
61384;BME280;63511;49.346;8.798;2023-01-28T08:59:35;101166.78;;;6.02;69.20
61384;BME280;63511;49.346;8.798;2023-01-28T09:02:05;101172.22;;;5.97;69.19
61384;BME280;63511;49.346;8.798;2023-01-28T09:04:31;101174.44;;;6.03;69.30
61384;BME280;63511;49.346;8.798;2023-01-28T09:06:58;101163.56;;;5.61;69.36
61384;BME280;63511;49.346;8.798;2023-01-28T09:09:26;101189.94;;;5.90;69.30
61384;BME280;63511;49.346;8.798;2023-01-28T09:11:52;101187.88;;;6.04;69.25
61384;BME280;63511;49.346;8.798;2023-01-28T09:14:24;101176.50;;;5.98;70.41
61384;BME280;63511;49.346;8.798;2023-01-28T09:16:51;101165.84;;;5.84;69.50
61384;BME280;63511;49.346;8.798;2023-01-28T09:19:17;101168.91;;;5.81;69.55
61384;BME280;63511;49.346;8.798;2023-01-28T09:21:44;101174.28;;;5.93;68.78
61384;BME280;63511;49.346;8.798;2023-01-28T09:27:49;101189.69;;;5.80;69.44
61384;BME280;63511;49.346;8.798;2023-01-28T09:30:34;101180.19;;;5.61;69.17
61384;BME280;63511;49.346;8.798;2023-01-28T09:33:13;101192.78;;;5.69;69.94
61384;BME280;63511;49.346;8.798;2023-01-28T09:36:07;101192.06;;;5.79;69.61
61384;BME280;63511;49.346;8.798;2023-01-28T09:42:07;101204.22;;;5.59;70.44
61384;BME280;63511;49.346;8.798;2023-01-28T09:45:12;101202.81;;;6.11;69.54
61384;BME280;63511;49.346;8.798;2023-01-28T09:51:14;101215.34;;;6.28;68.00
61384;BME280;63511;49.346;8.798;2023-01-28T10:06:25;101217.84;;;6.28;66.95
61384;BME280;63511;49.346;8.798;2023-01-28T10:09:09;101221.63;;;5.98;67.93
61384;BME280;63511;49.346;8.798;2023-01-28T10:11:48;101217.69;;;6.09;69.04
61384;BME280;63511;49.346;8.798;2023-01-28T10:14:25;101218.78;;;6.37;68.10
61384;BME280;63511;49.346;8.798;2023-01-28T10:17:03;101210.94;;;6.60;67.71
61384;BME280;63511;49.346;8.798;2023-01-28T10:19:36;101209.03;;;6.57;65.80
61384;BME280;63511;49.346;8.798;2023-01-28T10:22:11;101215.22;;;6.35;66.15
61384;BME280;63511;49.346;8.798;2023-01-28T10:24:42;101219.38;;;6.52;66.22
61384;BME280;63511;49.346;8.798;2023-01-28T10:27:13;101214.47;;;6.53;66.60
61384;BME280;63511;49.346;8.798;2023-01-28T10:29:41;101200.84;;;6.00;67.68
61384;BME280;63511;49.346;8.798;2023-01-28T10:32:16;101206.81;;;6.26;67.13
61384;BME280;63511;49.346;8.798;2023-01-28T10:34:47;101209.28;;;6.17;66.58
61384;BME280;63511;49.346;8.798;2023-01-28T10:37:16;101198.53;;;6.44;66.46
61384;BME280;63511;49.346;8.798;2023-01-28T10:39:43;101219.50;;;6.36;66.07
61384;BME280;63511;49.346;8.798;2023-01-28T10:42:19;101218.56;;;6.10;66.31
61384;BME280;63511;49.346;8.798;2023-01-28T10:44:56;101223.34;;;6.41;66.42
61384;BME280;63511;49.346;8.798;2023-01-28T10:47:28;101223.63;;;6.44;65.82
61384;BME280;63511;49.346;8.798;2023-01-28T10:49:57;101221.97;;;6.27;65.46
61384;BME280;63511;49.346;8.798;2023-01-28T10:52:26;101211.41;;;6.47;65.30
61384;BME280;63511;49.346;8.798;2023-01-28T10:55:00;101222.94;;;6.62;65.11
61384;BME280;63511;49.346;8.798;2023-01-28T10:57:27;101228.09;;;6.72;64.87
61384;BME280;63511;49.346;8.798;2023-01-28T10:59:54;101232.91;;;6.28;64.34
61384;BME280;63511;49.346;8.798;2023-01-28T11:02:27;101229.31;;;6.00;65.79
61384;BME280;63511;49.346;8.798;2023-01-28T11:05:00;101227.44;;;6.06;67.07
61384;BME280;63511;49.346;8.798;2023-01-28T11:07:28;101226.03;;;5.92;66.71
61384;BME280;63511;49.346;8.798;2023-01-28T11:09:55;101224.38;;;6.26;66.02
61384;BME280;63511;49.346;8.798;2023-01-28T11:12:24;101232.44;;;6.15;65.41
61384;BME280;63511;49.346;8.798;2023-01-28T11:14:53;101226.25;;;6.20;67.08
61384;BME280;63511;49.346;8.798;2023-01-28T11:17:22;101237.94;;;6.28;64.58
61384;BME280;63511;49.346;8.798;2023-01-28T11:19:50;101233.22;;;6.31;64.74
61384;BME280;63511;49.346;8.798;2023-01-28T11:22:27;101229.50;;;6.19;64.61
61384;BME280;63511;49.346;8.798;2023-01-28T11:24:58;101231.44;;;6.30;65.32
61384;BME280;63511;49.346;8.798;2023-01-28T11:27:28;101231.28;;;6.11;65.31
61384;BME280;63511;49.346;8.798;2023-01-28T11:29:56;101227.00;;;6.19;65.18
61384;BME280;63511;49.346;8.798;2023-01-28T11:32:27;101228.50;;;6.25;65.28
61384;BME280;63511;49.346;8.798;2023-01-28T11:34:55;101229.88;;;5.97;67.55
61384;BME280;63511;49.346;8.798;2023-01-28T11:37:25;101234.75;;;5.96;67.24
61384;BME280;63511;49.346;8.798;2023-01-28T11:40:14;101242.75;;;6.09;66.92
61384;BME280;63511;49.346;8.798;2023-01-28T11:42:44;101227.91;;;5.86;67.38
61384;BME280;63511;49.346;8.798;2023-01-28T11:45:14;101227.72;;;6.18;66.42
61384;BME280;63511;49.346;8.798;2023-01-28T11:47:51;101238.81;;;6.20;65.76
61384;BME280;63511;49.346;8.798;2023-01-28T11:50:24;101237.78;;;6.26;66.96
61384;BME280;63511;49.346;8.798;2023-01-28T11:53:09;101226.88;;;6.26;64.41
61384;BME280;63511;49.346;8.798;2023-01-28T11:55:50;101218.03;;;6.55;64.47
61384;BME280;63511;49.346;8.798;2023-01-28T11:58:22;101222.75;;;6.87;64.37
61384;BME280;63511;49.346;8.798;2023-01-28T12:00:59;101213.00;;;6.81;66.16
61384;BME280;63511;49.346;8.798;2023-01-28T12:03:57;101216.41;;;6.90;63.07
61384;BME280;63511;49.346;8.798;2023-01-28T12:06:46;101209.59;;;6.98;63.06
61384;BME280;63511;49.346;8.798;2023-01-28T12:09:22;101212.56;;;6.85;63.81
61384;BME280;63511;49.346;8.798;2023-01-28T12:12:06;101204.28;;;7.03;63.09
61384;BME280;63511;49.346;8.798;2023-01-28T12:14:57;101208.72;;;6.54;64.17
61384;BME280;63511;49.346;8.798;2023-01-28T12:17:36;101201.06;;;6.87;62.15
61384;BME280;63511;49.346;8.798;2023-01-28T12:20:11;101196.31;;;6.90;61.86
61384;BME280;63511;49.346;8.798;2023-01-28T12:25:54;101200.00;;;6.94;61.73
61384;BME280;63511;49.346;8.798;2023-01-28T12:28:36;101189.66;;;6.91;61.52
61384;BME280;63511;49.346;8.798;2023-01-28T12:31:32;101193.69;;;6.89;60.54
61384;BME280;63511;49.346;8.798;2023-01-28T12:34:28;101199.16;;;6.67;61.61
61384;BME280;63511;49.346;8.798;2023-01-28T12:37:10;101198.34;;;6.17;61.53
61384;BME280;63511;49.346;8.798;2023-01-28T12:39:51;101194.56;;;6.29;60.99
61384;BME280;63511;49.346;8.798;2023-01-28T12:42:29;101175.97;;;6.27;61.44
61384;BME280;63511;49.346;8.798;2023-01-28T12:45:03;101194.56;;;6.37;61.12
61384;BME280;63511;49.346;8.798;2023-01-28T12:47:38;101182.31;;;6.49;61.15
61384;BME280;63511;49.346;8.798;2023-01-28T12:50:12;101183.06;;;6.31;60.58
61384;BME280;63511;49.346;8.798;2023-01-28T12:52:44;101185.88;;;6.51;60.94
61384;BME280;63511;49.346;8.798;2023-01-28T12:55:15;101186.00;;;6.78;60.58
61384;BME280;63511;49.346;8.798;2023-01-28T12:57:44;101181.28;;;6.56;60.80
61384;BME280;63511;49.346;8.798;2023-01-28T13:00:21;101191.19;;;6.63;60.74
61384;BME280;63511;49.346;8.798;2023-01-28T13:02:59;101191.28;;;6.13;61.44
61384;BME280;63511;49.346;8.798;2023-01-28T13:05:31;101187.31;;;6.23;61.63
61384;BME280;63511;49.346;8.798;2023-01-28T13:08:02;101186.59;;;6.59;61.53
61384;BME280;63511;49.346;8.798;2023-01-28T13:10:35;101191.47;;;6.57;61.47
61384;BME280;63511;49.346;8.798;2023-01-28T13:13:04;101181.72;;;6.43;61.91
61384;BME280;63511;49.346;8.798;2023-01-28T13:15:35;101189.09;;;6.50;61.39
61384;BME280;63511;49.346;8.798;2023-01-28T13:18:05;101182.78;;;6.62;61.28
61384;BME280;63511;49.346;8.798;2023-01-28T13:20:37;101204.31;;;6.26;61.00
61384;BME280;63511;49.346;8.798;2023-01-28T13:23:21;101191.31;;;6.38;60.67
61384;BME280;63511;49.346;8.798;2023-01-28T13:25:49;101190.88;;;6.34;62.29
61384;BME280;63511;49.346;8.798;2023-01-28T13:28:28;101200.34;;;6.36;62.05
61384;BME280;63511;49.346;8.798;2023-01-28T13:31:11;101197.91;;;5.95;62.65
61384;BME280;63511;49.346;8.798;2023-01-28T13:33:45;101206.03;;;6.18;62.23
61384;BME280;63511;49.346;8.798;2023-01-28T13:36:18;101213.34;;;5.91;62.99
61384;BME280;63511;49.346;8.798;2023-01-28T13:38:59;101203.25;;;6.24;62.99
61384;BME280;63511;49.346;8.798;2023-01-28T13:41:36;101202.06;;;6.20;62.46
61384;BME280;63511;49.346;8.798;2023-01-28T13:44:16;101195.88;;;5.75;62.52
61384;BME280;63511;49.346;8.798;2023-01-28T13:46:45;101209.41;;;6.02;62.86
61384;BME280;63511;49.346;8.798;2023-01-28T13:49:15;101202.25;;;6.30;62.35
61384;BME280;63511;49.346;8.798;2023-01-28T13:51:55;101202.63;;;6.01;62.59
61384;BME280;63511;49.346;8.798;2023-01-28T13:54:25;101205.00;;;6.08;62.51
61384;BME280;63511;49.346;8.798;2023-01-28T13:57:07;101217.50;;;5.66;62.74
61384;BME280;63511;49.346;8.798;2023-01-28T13:59:48;101216.53;;;5.81;62.92